createdAt,value
2023-04-24T00:01:03.940Z,12.00
2023-04-24T00:03:31.099Z,12.00
2023-04-24T00:06:00.013Z,11.90
2023-04-24T00:08:27.287Z,12.00
2023-04-24T00:10:53.992Z,12.00
2023-04-24T00:13:20.690Z,12.00
2023-04-24T00:15:47.395Z,12.20
2023-04-24T00:18:14.066Z,12.10
2023-04-24T00:20:40.820Z,11.90
2023-04-24T00:23:07.545Z,11.90
2023-04-24T00:25:34.279Z,11.90
2023-04-24T00:28:01.330Z,11.90
2023-04-24T00:30:28.084Z,11.80
2023-04-24T00:32:54.766Z,11.90
2023-04-24T00:35:22.105Z,11.90
2023-04-24T00:37:48.883Z,11.70
2023-04-24T00:40:15.686Z,11.90
2023-04-24T00:42:43.978Z,11.80
2023-04-24T00:45:11.264Z,11.90
2023-04-24T00:47:38.013Z,11.90
2023-04-24T00:50:06.424Z,11.90
2023-04-24T00:52:33.697Z,11.90
2023-04-24T00:55:00.505Z,12.00
2023-04-24T00:57:27.863Z,12.10
2023-04-24T00:59:55.097Z,12.20
2023-04-24T01:02:23.804Z,12.00
2023-04-24T01:04:52.216Z,12.00
2023-04-24T01:07:21.827Z,11.90
2023-04-24T01:09:51.801Z,11.70
2023-04-24T01:12:19.595Z,11.80
2023-04-24T01:14:46.508Z,12.00
2023-04-24T01:17:13.376Z,11.90
2023-04-24T01:19:41.173Z,11.90
2023-04-24T01:22:18.037Z,12.00
2023-04-24T01:24:44.969Z,12.10
2023-04-24T01:27:13.370Z,12.10
2023-04-24T01:29:40.499Z,12.10
2023-04-24T01:32:07.916Z,11.90
2023-04-24T01:34:34.979Z,11.90
2023-04-24T01:37:01.944Z,11.80
2023-04-24T01:39:29.440Z,11.80
2023-04-24T01:41:56.906Z,12.00
2023-04-24T01:44:24.443Z,12.00
2023-04-24T01:46:51.561Z,11.90
2023-04-24T01:49:18.725Z,11.70
2023-04-24T01:51:45.932Z,11.90
2023-04-24T01:54:13.128Z,11.90
2023-04-24T01:56:44.202Z,11.90
2023-04-24T01:59:12.189Z,11.80
2023-04-24T02:01:39.459Z,11.70
2023-04-24T02:04:07.614Z,11.50
2023-04-24T02:06:36.182Z,11.60
2023-04-24T02:09:03.969Z,11.50
2023-04-24T02:11:30.756Z,11.80
2023-04-24T02:13:58.126Z,11.80
2023-04-24T02:16:24.865Z,11.80
2023-04-24T02:18:51.653Z,11.90
2023-04-24T02:21:18.362Z,11.90
2023-04-24T02:23:45.157Z,12.00
2023-04-24T02:26:13.514Z,11.80
2023-04-24T02:28:40.356Z,11.70
2023-04-24T02:31:07.354Z,11.60
2023-04-24T02:33:34.287Z,11.70
2023-04-24T02:36:01.170Z,11.70
2023-04-24T02:38:27.917Z,11.60
2023-04-24T02:40:54.628Z,11.70
2023-04-24T02:43:21.518Z,11.70
2023-04-24T02:45:49.799Z,11.80
2023-04-24T02:48:16.535Z,12.00
2023-04-24T02:50:43.324Z,12.00
2023-04-24T02:53:10.077Z,12.00
2023-04-24T02:55:37.140Z,11.90
2023-04-24T02:58:03.984Z,11.80
2023-04-24T03:00:31.148Z,11.60
2023-04-24T03:02:58.061Z,11.70
2023-04-24T03:05:24.889Z,11.60
2023-04-24T03:07:53.554Z,11.40
2023-04-24T03:10:23.439Z,11.50
2023-04-24T03:12:50.548Z,11.60
2023-04-24T03:15:19.282Z,11.50
2023-04-24T03:17:46.248Z,11.40
2023-04-24T03:20:13.099Z,11.40
2023-04-24T03:22:40.524Z,11.50
2023-04-24T03:25:10.293Z,11.60
2023-04-24T03:27:38.328Z,11.60
2023-04-24T03:30:16.645Z,11.50
2023-04-24T03:32:48.482Z,11.30
2023-04-24T03:35:22.149Z,11.40
2023-04-24T03:37:49.389Z,11.60
2023-04-24T03:40:50.108Z,11.50
2023-04-24T03:43:31.356Z,11.50
2023-04-24T03:46:00.361Z,11.40
2023-04-24T03:48:27.270Z,11.30
2023-04-24T03:50:54.140Z,11.40
2023-04-24T03:53:20.982Z,11.50
2023-04-24T03:55:48.707Z,11.50
2023-04-24T03:58:15.574Z,11.40
2023-04-24T04:00:42.415Z,11.50
2023-04-24T04:03:29.461Z,11.30
2023-04-24T04:05:56.584Z,11.10
2023-04-24T04:08:23.281Z,11.10
2023-04-24T04:10:50.029Z,10.70
2023-04-24T04:13:16.730Z,10.30
2023-04-24T04:15:43.754Z,10.20
2023-04-24T04:18:11.140Z,10.30
2023-04-24T04:20:37.855Z,10.10
2023-04-24T04:23:04.890Z,9.90
2023-04-24T04:26:04.631Z,9.70
2023-04-24T04:28:45.791Z,9.70
2023-04-24T04:31:13.887Z,9.70
2023-04-24T04:33:40.913Z,9.30
2023-04-24T04:36:10.307Z,9.30
2023-04-24T04:38:44.004Z,9.40
2023-04-24T04:41:29.051Z,9.30
2023-04-24T04:43:55.945Z,9.40
2023-04-24T04:46:26.956Z,9.40
2023-04-24T04:49:07.113Z,9.40
2023-04-24T04:51:33.829Z,9.40
2023-04-24T04:54:00.625Z,9.80
2023-04-24T04:56:27.440Z,10.00
2023-04-24T04:58:54.989Z,10.30
2023-04-24T05:01:24.023Z,10.20
2023-04-24T05:03:51.481Z,9.90
2023-04-24T05:06:18.330Z,9.90
2023-04-24T05:08:46.145Z,10.10
2023-04-24T05:11:24.263Z,9.80
2023-04-24T05:13:52.062Z,9.50
2023-04-24T05:16:23.806Z,9.20
2023-04-24T05:18:53.317Z,9.30
2023-04-24T05:21:24.457Z,9.40
2023-04-24T05:23:52.397Z,9.10
2023-04-24T05:26:31.495Z,9.20
2023-04-24T05:28:59.803Z,9.30
2023-04-24T05:31:26.559Z,9.40
2023-04-24T05:33:53.322Z,9.40
2023-04-24T05:36:20.560Z,9.40
2023-04-24T05:38:47.514Z,9.50
2023-04-24T05:41:16.081Z,9.30
2023-04-24T05:43:42.801Z,9.20
2023-04-24T05:46:09.555Z,9.10
2023-04-24T05:48:36.552Z,9.20
2023-04-24T05:51:04.340Z,9.40
2023-04-24T05:53:31.375Z,9.50
2023-04-24T05:55:58.419Z,9.30
2023-04-24T05:58:25.276Z,9.30
2023-04-24T06:00:51.935Z,9.60
2023-04-24T06:03:18.888Z,9.80
2023-04-24T06:05:48.063Z,9.70
2023-04-24T06:08:14.892Z,9.80
2023-04-24T06:10:43.562Z,9.90
2023-04-24T06:13:12.091Z,10.00
2023-04-24T06:15:43.154Z,10.10
2023-04-24T06:18:28.359Z,10.10
2023-04-24T06:20:56.144Z,10.00
2023-04-24T06:23:24.123Z,10.20
2023-04-24T06:25:51.013Z,10.10
2023-04-24T06:28:17.749Z,9.90
2023-04-24T06:30:44.523Z,9.80
2023-04-24T06:33:19.973Z,9.80
2023-04-24T06:35:47.401Z,9.50
2023-04-24T06:38:14.188Z,9.40
2023-04-24T06:40:41.125Z,9.30
2023-04-24T06:43:07.824Z,9.20
2023-04-24T06:45:34.931Z,9.40
2023-04-24T06:48:01.690Z,9.50
2023-04-24T06:50:28.371Z,9.60
2023-04-24T06:52:55.063Z,9.80
2023-04-24T06:55:21.770Z,9.80
2023-04-24T06:57:48.510Z,9.60
2023-04-24T07:00:15.523Z,9.40
2023-04-24T07:02:42.342Z,9.50
2023-04-24T07:05:09.369Z,9.70
2023-04-24T07:07:38.917Z,9.90
2023-04-24T07:10:06.615Z,10.00
2023-04-24T07:12:33.888Z,9.90
2023-04-24T07:15:01.463Z,10.00
2023-04-24T07:17:28.185Z,10.10
2023-04-24T07:19:54.984Z,9.80
2023-04-24T07:22:21.796Z,9.90
2023-04-24T07:24:48.548Z,9.60
2023-04-24T07:27:16.071Z,9.50
2023-04-24T07:29:43.388Z,9.50
2023-04-24T07:32:10.368Z,9.60
2023-04-24T07:34:37.106Z,9.50
2023-04-24T07:37:04.219Z,9.70
2023-04-24T07:39:30.997Z,9.60
2023-04-24T07:41:59.567Z,9.70
2023-04-24T07:44:27.110Z,9.90
2023-04-24T07:46:54.038Z,9.90
2023-04-24T07:49:20.877Z,9.80
2023-04-24T07:51:47.519Z,9.50
2023-04-24T07:54:14.364Z,9.60
2023-04-24T07:56:43.759Z,9.70
2023-04-24T07:59:11.176Z,9.60
2023-04-24T08:01:38.569Z,9.40
2023-04-24T08:04:05.897Z,9.60
2023-04-24T08:06:33.077Z,9.40
2023-04-24T08:09:00.740Z,9.30
2023-04-24T08:11:27.621Z,9.20
2023-04-24T08:13:55.705Z,9.30
2023-04-24T08:16:22.772Z,9.40
2023-04-24T08:18:49.547Z,9.40
2023-04-24T08:21:18.126Z,9.40
2023-04-24T08:23:45.237Z,9.30
2023-04-24T08:26:12.221Z,9.10
2023-04-24T08:28:39.210Z,8.80
2023-04-24T08:31:06.158Z,8.80
2023-04-24T08:33:35.381Z,9.00
2023-04-24T08:36:04.365Z,9.10
2023-04-24T08:38:31.781Z,9.10
2023-04-24T08:41:00.355Z,8.90
2023-04-24T08:43:28.327Z,8.90
2023-04-24T08:45:57.790Z,8.80
2023-04-24T08:48:30.774Z,8.60
2023-04-24T08:50:59.934Z,8.70
2023-04-24T08:53:27.981Z,9.00
2023-04-24T08:55:56.527Z,9.00
2023-04-24T08:58:26.720Z,9.00
2023-04-24T09:00:56.383Z,9.10
2023-04-24T09:03:23.507Z,9.20
2023-04-24T09:05:51.585Z,9.50
2023-04-24T09:08:20.073Z,9.90
2023-04-24T09:10:49.101Z,10.40
2023-04-24T09:13:17.744Z,10.50
2023-04-24T09:15:44.540Z,10.50
2023-04-24T09:18:11.257Z,10.40
2023-04-24T09:21:18.147Z,10.60
2023-04-24T09:23:44.858Z,10.40
2023-04-24T09:26:11.866Z,9.90
2023-04-24T09:28:40.662Z,10.30
2023-04-24T09:31:15.653Z,10.60
2023-04-24T09:33:55.635Z,10.70
2023-04-24T09:36:34.006Z,10.90
2023-04-24T09:39:02.407Z,10.90
2023-04-24T09:41:32.550Z,10.70
2023-04-24T09:44:12.219Z,10.60
2023-04-24T09:46:39.112Z,10.30
2023-04-24T09:49:16.409Z,10.20
2023-04-24T09:51:43.875Z,10.10
2023-04-24T09:54:25.684Z,10.00
2023-04-24T09:56:52.616Z,10.00
2023-04-24T09:59:20.680Z,10.10
2023-04-24T10:01:49.673Z,10.40
2023-04-24T10:04:21.927Z,10.40
2023-04-24T10:06:50.003Z,10.70
2023-04-24T10:09:18.322Z,10.90
2023-04-24T10:11:46.992Z,10.60
2023-04-24T10:14:16.161Z,10.30
2023-04-24T10:16:44.749Z,9.90
2023-04-24T10:19:14.271Z,9.70
2023-04-24T10:21:47.543Z,9.70
2023-04-24T10:24:21.344Z,9.80
2023-04-24T10:26:51.357Z,9.80
2023-04-24T10:29:19.807Z,9.70
2023-04-24T10:31:47.667Z,10.00
2023-04-24T10:34:17.094Z,10.60
2023-04-24T10:36:49.030Z,10.80
2023-04-24T10:39:17.258Z,10.80
2023-04-24T10:41:44.140Z,11.00
2023-04-24T10:44:15.278Z,11.00
2023-04-24T10:46:46.931Z,11.00
2023-04-24T10:49:14.303Z,11.10
2023-04-24T10:51:53.847Z,11.20
2023-04-24T10:54:37.923Z,11.30
2023-04-24T10:57:23.263Z,11.70
2023-04-24T11:00:16.634Z,11.80
2023-04-24T11:02:50.498Z,11.90
2023-04-24T11:05:18.720Z,11.40
2023-04-24T11:08:14.906Z,11.30
2023-04-24T11:11:09.246Z,11.40
2023-04-24T11:13:54.901Z,11.20
2023-04-24T11:16:24.643Z,11.20
2023-04-24T11:18:55.330Z,11.10
2023-04-24T11:21:23.474Z,11.00
2023-04-24T11:23:51.566Z,10.80
2023-04-24T11:26:25.279Z,10.20
2023-04-24T11:28:52.102Z,9.70
2023-04-24T11:31:38.561Z,9.30
2023-04-24T11:34:15.069Z,9.20
2023-04-24T11:36:45.469Z,9.10
2023-04-24T11:39:12.716Z,9.20
2023-04-24T11:41:39.454Z,8.70
2023-04-24T11:44:09.866Z,8.60
2023-04-24T11:46:38.944Z,8.70
2023-04-24T11:49:09.456Z,9.00
2023-04-24T11:51:47.841Z,9.40
2023-04-24T11:54:18.132Z,10.20
2023-04-24T11:56:48.904Z,11.10
2023-04-24T11:59:15.837Z,11.60
2023-04-24T12:01:49.656Z,12.10
2023-04-24T12:04:18.640Z,12.60
2023-04-24T12:07:05.839Z,12.60
2023-04-24T12:09:43.757Z,12.00
2023-04-24T12:12:13.097Z,12.10
2023-04-24T12:14:51.086Z,11.90
2023-04-24T12:17:18.293Z,11.60
2023-04-24T12:19:49.079Z,11.10
2023-04-24T12:22:16.064Z,10.90
2023-04-24T12:25:00.256Z,10.50
2023-04-24T12:27:27.909Z,10.40
2023-04-24T12:29:57.374Z,10.10
2023-04-24T12:32:28.118Z,9.80
2023-04-24T12:34:55.891Z,9.90
2023-04-24T12:37:26.563Z,9.70
2023-04-24T12:40:03.788Z,9.80
2023-04-24T12:42:31.870Z,10.10
2023-04-24T12:45:06.735Z,10.10
2023-04-24T12:47:35.721Z,10.40
2023-04-24T12:50:03.243Z,10.50
2023-04-24T12:52:32.949Z,10.00
2023-04-24T12:55:01.545Z,10.00
2023-04-24T12:57:30.834Z,9.90
2023-04-24T12:59:59.567Z,10.30
2023-04-24T13:02:28.411Z,10.40
2023-04-24T13:04:55.713Z,10.70
2023-04-24T13:07:23.216Z,11.10
2023-04-24T13:09:51.403Z,11.20
2023-04-24T13:12:19.166Z,11.30
2023-04-24T13:14:46.945Z,11.40
2023-04-24T13:17:15.747Z,11.80
2023-04-24T13:19:44.337Z,11.40
2023-04-24T13:22:12.442Z,11.00
2023-04-24T13:24:44.665Z,10.80
2023-04-24T13:27:11.659Z,10.60
2023-04-24T13:29:38.735Z,10.70
2023-04-24T13:32:08.691Z,11.10
2023-04-24T13:34:35.899Z,11.40
2023-04-24T13:37:07.669Z,11.20
2023-04-24T13:39:38.206Z,10.80
2023-04-24T13:42:08.838Z,11.00
2023-04-24T13:44:39.253Z,11.20
2023-04-24T13:47:06.902Z,11.30
2023-04-24T13:49:34.807Z,11.20
2023-04-24T13:52:03.332Z,11.40
2023-04-24T13:54:30.636Z,11.70
2023-04-24T13:56:59.057Z,11.50
2023-04-24T13:59:34.387Z,11.50
2023-04-24T14:02:02.005Z,11.70
2023-04-24T14:04:31.934Z,11.30
2023-04-24T14:06:59.130Z,11.30
2023-04-24T14:09:26.264Z,11.30
2023-04-24T14:11:53.443Z,11.30
2023-04-24T14:14:20.213Z,11.30
2023-04-24T14:16:46.989Z,11.30
2023-04-24T14:19:13.668Z,11.30
2023-04-24T14:21:40.556Z,11.40
2023-04-24T14:24:07.298Z,11.30
2023-04-24T14:26:33.985Z,11.20
2023-04-24T14:29:11.705Z,10.90
2023-04-24T14:31:42.705Z,10.70
2023-04-24T14:34:10.175Z,10.50
2023-04-24T14:36:36.886Z,10.50
2023-04-24T14:39:07.489Z,10.70
2023-04-24T14:41:36.858Z,10.80
2023-04-24T14:44:04.379Z,10.90
2023-04-24T14:46:31.593Z,10.90
2023-04-24T14:49:02.055Z,10.90
2023-04-24T14:51:29.334Z,11.10
2023-04-24T14:53:57.959Z,11.20
2023-04-24T14:56:25.312Z,11.20
2023-04-24T14:58:52.883Z,11.00
2023-04-24T15:01:19.993Z,11.10
2023-04-24T15:03:47.366Z,11.30
2023-04-24T15:06:14.814Z,11.20
2023-04-24T15:08:43.210Z,11.10
2023-04-24T15:11:11.804Z,11.10
2023-04-24T15:13:39.475Z,11.10
2023-04-24T15:16:06.670Z,11.10
2023-04-24T15:18:35.511Z,11.20
2023-04-24T15:21:03.322Z,11.40
2023-04-24T15:23:30.860Z,11.10
2023-04-24T15:25:58.553Z,11.10
2023-04-24T15:28:26.758Z,11.10
2023-04-24T15:30:53.752Z,11.20
2023-04-24T15:33:23.422Z,11.40
2023-04-24T15:35:51.568Z,11.30
2023-04-24T15:38:20.079Z,11.20
2023-04-24T15:40:47.191Z,11.20
2023-04-24T15:43:13.921Z,11.20
2023-04-24T15:45:41.505Z,11.30
2023-04-24T15:48:08.672Z,11.30
2023-04-24T15:50:35.931Z,11.30
2023-04-24T15:53:03.547Z,11.40
2023-04-24T15:55:31.183Z,11.30
2023-04-24T15:57:57.994Z,11.10
2023-04-24T16:00:25.021Z,11.00
2023-04-24T16:02:52.127Z,10.90
2023-04-24T16:05:20.825Z,11.00
2023-04-24T16:07:48.783Z,10.80
2023-04-24T16:10:16.289Z,10.50
2023-04-24T16:12:48.430Z,10.70
2023-04-24T16:15:16.714Z,10.70
2023-04-24T16:17:45.834Z,10.70
2023-04-24T16:20:15.069Z,10.80
2023-04-24T16:22:42.913Z,10.80
2023-04-24T16:25:11.584Z,11.10
2023-04-24T16:27:38.923Z,11.20
2023-04-24T16:30:06.810Z,11.20
2023-04-24T16:32:34.867Z,11.20
2023-04-24T16:35:04.924Z,11.20
2023-04-24T16:37:32.549Z,11.10
2023-04-24T16:40:02.000Z,11.00
2023-04-24T16:42:29.329Z,11.10
2023-04-24T16:44:59.607Z,11.10
2023-04-24T16:47:28.963Z,10.80
2023-04-24T16:49:56.512Z,10.70
2023-04-24T16:52:23.167Z,10.60
2023-04-24T16:54:55.964Z,10.80
2023-04-24T16:57:23.132Z,10.80
2023-04-24T16:59:49.811Z,10.90
2023-04-24T17:02:16.566Z,10.70
2023-04-24T17:04:43.477Z,10.70
2023-04-24T17:07:10.248Z,10.90
2023-04-24T17:09:37.138Z,11.00
2023-04-24T17:12:03.951Z,11.30
2023-04-24T17:14:30.816Z,11.30
2023-04-24T17:16:57.657Z,11.30
2023-04-24T17:19:25.846Z,11.20
2023-04-24T17:21:52.861Z,11.30
2023-04-24T17:24:19.599Z,11.20
2023-04-24T17:26:46.290Z,11.00
2023-04-24T17:29:15.428Z,10.90
2023-04-24T17:31:42.261Z,10.80
2023-04-24T17:34:10.171Z,10.70
2023-04-24T17:36:38.277Z,10.60
2023-04-24T17:39:05.790Z,10.60
2023-04-24T17:41:32.466Z,10.80
2023-04-24T17:43:59.112Z,10.80
2023-04-24T17:46:26.181Z,10.70
2023-04-24T17:48:53.255Z,10.80
2023-04-24T17:51:20.195Z,10.80
2023-04-24T17:53:48.584Z,10.90
2023-04-24T17:56:15.559Z,11.00
2023-04-24T17:58:42.353Z,11.00
2023-04-24T18:01:09.376Z,11.00
2023-04-24T18:03:36.222Z,11.10
2023-04-24T18:06:03.047Z,11.10
2023-04-24T18:08:29.990Z,11.10
2023-04-24T18:10:57.999Z,11.10
2023-04-24T18:13:24.790Z,11.00
2023-04-24T18:15:51.481Z,10.90
2023-04-24T18:18:18.170Z,10.90
2023-04-24T18:20:45.850Z,10.70
2023-04-24T18:23:12.546Z,10.70
2023-04-24T18:25:39.358Z,10.30
2023-04-24T18:28:06.031Z,10.00
2023-04-24T18:30:34.603Z,9.90
2023-04-24T18:33:01.447Z,10.00
2023-04-24T18:35:28.849Z,9.80
2023-04-24T18:37:55.756Z,9.50
2023-04-24T18:40:22.727Z,9.30
2023-04-24T18:42:49.933Z,9.30
2023-04-24T18:45:16.704Z,9.40
2023-04-24T18:47:44.161Z,9.60
2023-04-24T18:50:11.756Z,9.40
2023-04-24T18:52:38.540Z,9.40
2023-04-24T18:55:06.899Z,9.50
2023-04-24T18:57:34.173Z,9.70
2023-04-24T19:00:00.888Z,9.60
2023-04-24T19:02:28.036Z,9.60
2023-04-24T19:04:55.290Z,9.80
2023-04-24T19:07:22.048Z,10.00
2023-04-24T19:09:48.748Z,10.00
2023-04-24T19:12:16.389Z,10.00
2023-04-24T19:14:43.191Z,10.00
2023-04-24T19:17:10.891Z,10.10
2023-04-24T19:19:37.582Z,10.10
2023-04-24T19:22:04.912Z,10.10
2023-04-24T19:24:33.561Z,10.10
2023-04-24T19:27:01.460Z,10.10
2023-04-24T19:29:28.436Z,10.30
2023-04-24T19:31:57.648Z,10.30
2023-04-24T19:34:24.897Z,10.30
2023-04-24T19:36:51.730Z,10.20
2023-04-24T19:39:18.510Z,10.20
2023-04-24T19:41:45.183Z,10.20
2023-04-24T19:44:11.908Z,10.20
2023-04-24T19:46:39.899Z,10.20
2023-04-24T19:49:06.831Z,10.20
2023-04-24T19:51:33.537Z,10.30
2023-04-24T19:54:00.948Z,10.30
2023-04-24T19:56:27.644Z,10.20
2023-04-24T19:58:54.459Z,10.20
2023-04-24T20:01:21.360Z,10.20
2023-04-24T20:03:48.463Z,10.20
2023-04-24T20:06:15.271Z,10.20
2023-04-24T20:08:42.662Z,10.10
2023-04-24T20:11:09.514Z,10.10
2023-04-24T20:13:36.205Z,9.90
2023-04-24T20:16:02.961Z,9.90
2023-04-24T20:18:29.850Z,9.40
2023-04-24T20:20:56.826Z,9.40
2023-04-24T20:23:23.508Z,9.30
2023-04-24T20:25:50.257Z,9.30
2023-04-24T20:28:17.251Z,9.30
2023-04-24T20:30:43.954Z,9.10
2023-04-24T20:33:10.641Z,9.00
2023-04-24T20:35:37.317Z,9.10
2023-04-24T20:38:04.105Z,9.10
2023-04-24T20:40:31.798Z,9.20
2023-04-24T20:42:58.623Z,9.40
2023-04-24T20:45:25.730Z,9.50
2023-04-24T20:47:52.604Z,9.40
2023-04-24T20:50:20.260Z,9.50
2023-04-24T20:52:46.935Z,9.20
2023-04-24T20:55:14.161Z,9.10
2023-04-24T20:57:41.015Z,8.90
2023-04-24T21:00:08.816Z,8.90
2023-04-24T21:02:35.691Z,8.90
2023-04-24T21:05:04.273Z,9.10
2023-04-24T21:07:31.204Z,9.20
2023-04-24T21:09:57.924Z,9.30
2023-04-24T21:12:24.579Z,9.30
2023-04-24T21:14:51.547Z,9.30
2023-04-24T21:17:18.691Z,9.30
2023-04-24T21:19:45.407Z,9.40
2023-04-24T21:22:12.054Z,9.40
2023-04-24T21:24:38.831Z,9.50
2023-04-24T21:27:05.602Z,9.60
2023-04-24T21:29:33.008Z,9.70
2023-04-24T21:31:59.698Z,9.70
2023-04-24T21:34:26.513Z,9.70
2023-04-24T21:36:55.330Z,9.60
2023-04-24T21:39:22.107Z,9.60
2023-04-24T21:41:48.846Z,9.60
2023-04-24T21:44:15.934Z,9.50
2023-04-24T21:46:42.815Z,9.50
2023-04-24T21:49:09.623Z,9.40
2023-04-24T21:51:36.269Z,9.30
2023-04-24T21:54:02.940Z,9.20
2023-04-24T21:56:29.669Z,9.30
2023-04-24T21:58:56.921Z,9.20
2023-04-24T22:01:23.627Z,9.20
2023-04-24T22:03:50.730Z,9.20
2023-04-24T22:06:17.775Z,9.30
2023-04-24T22:08:47.461Z,9.30
2023-04-24T22:11:25.645Z,9.30
2023-04-24T22:13:54.641Z,9.30
2023-04-24T22:16:25.206Z,9.30
2023-04-24T22:18:53.599Z,9.40
2023-04-24T22:21:22.503Z,9.60
2023-04-24T22:23:49.420Z,9.60
2023-04-24T22:26:16.287Z,9.30
2023-04-24T22:28:43.085Z,9.10
2023-04-24T22:31:09.953Z,9.00
2023-04-24T22:33:36.729Z,8.90
2023-04-24T22:36:04.010Z,8.70
2023-04-24T22:38:32.578Z,8.50
2023-04-24T22:40:59.370Z,8.40
2023-04-24T22:43:26.814Z,8.50
2023-04-24T22:45:53.454Z,8.60
2023-04-24T22:48:20.565Z,8.70
2023-04-24T22:50:47.224Z,8.70
2023-04-24T22:53:13.882Z,8.80
2023-04-24T22:55:40.714Z,8.90
2023-04-24T22:58:09.754Z,9.00
2023-04-24T23:00:36.577Z,8.90
2023-04-24T23:03:03.853Z,8.80
2023-04-24T23:05:31.139Z,8.80
2023-04-24T23:07:58.025Z,8.70
2023-04-24T23:10:24.697Z,8.80
2023-04-24T23:12:57.628Z,8.70
2023-04-24T23:15:30.919Z,8.50
2023-04-24T23:17:57.954Z,8.60
2023-04-24T23:20:28.166Z,8.70
2023-04-24T23:22:54.981Z,8.70
2023-04-24T23:25:21.714Z,8.70
2023-04-24T23:27:49.794Z,8.70
2023-04-24T23:30:16.737Z,8.80
2023-04-24T23:32:44.210Z,9.00
2023-04-24T23:35:11.612Z,8.90
2023-04-24T23:37:38.746Z,8.90
2023-04-24T23:40:11.308Z,8.90
2023-04-24T23:42:38.244Z,8.90
2023-04-24T23:45:05.432Z,8.80
2023-04-24T23:47:32.175Z,9.00
2023-04-24T23:49:58.982Z,9.10
2023-04-24T23:52:25.707Z,9.00
2023-04-24T23:54:52.529Z,9.00
2023-04-24T23:57:19.517Z,9.00
2023-04-24T23:59:46.151Z,9.10
